sensor_id;sensor_type;location;lat;lon;timestamp;P1;durP1;ratioP1;P2;durP2;ratioP2
1693;SDS011;844;47.058;15.472;2023-05-07T00:00:01;8.87;;;8.10;;
1693;SDS011;844;47.058;15.472;2023-05-07T00:02:36;9.60;;;8.80;;
1693;SDS011;844;47.058;15.472;2023-05-07T00:05:07;8.97;;;8.27;;
1693;SDS011;844;47.058;15.472;2023-05-07T00:07:40;9.13;;;8.43;;
1693;SDS011;844;47.058;15.472;2023-05-07T00:10:10;8.57;;;7.97;;
1693;SDS011;844;47.058;15.472;2023-05-07T00:12:41;8.80;;;7.97;;
1693;SDS011;844;47.058;15.472;2023-05-07T00:15:12;7.03;;;6.50;;
1693;SDS011;844;47.058;15.472;2023-05-07T00:17:43;6.83;;;6.33;;
1693;SDS011;844;47.058;15.472;2023-05-07T00:20:14;7.37;;;6.70;;
1693;SDS011;844;47.058;15.472;2023-05-07T00:22:46;7.47;;;6.87;;
1693;SDS011;844;47.058;15.472;2023-05-07T00:25:17;6.47;;;5.97;;
1693;SDS011;844;47.058;15.472;2023-05-07T00:27:48;5.90;;;5.43;;
1693;SDS011;844;47.058;15.472;2023-05-07T00:30:19;8.40;;;7.70;;
1693;SDS011;844;47.058;15.472;2023-05-07T00:32:49;8.57;;;7.73;;
1693;SDS011;844;47.058;15.472;2023-05-07T00:35:20;8.53;;;7.83;;
1693;SDS011;844;47.058;15.472;2023-05-07T00:37:52;8.40;;;7.77;;
1693;SDS011;844;47.058;15.472;2023-05-07T00:40:23;10.30;;;9.30;;
1693;SDS011;844;47.058;15.472;2023-05-07T00:42:57;8.40;;;7.70;;
1693;SDS011;844;47.058;15.472;2023-05-07T00:45:27;9.40;;;8.60;;
1693;SDS011;844;47.058;15.472;2023-05-07T00:47:58;10.83;;;9.93;;
1693;SDS011;844;47.058;15.472;2023-05-07T00:50:31;9.67;;;8.77;;
1693;SDS011;844;47.058;15.472;2023-05-07T00:53:05;10.53;;;9.63;;
1693;SDS011;844;47.058;15.472;2023-05-07T00:55:39;8.93;;;8.20;;
1693;SDS011;844;47.058;15.472;2023-05-07T00:58:10;9.33;;;8.60;;
1693;SDS011;844;47.058;15.472;2023-05-07T01:00:41;8.53;;;7.80;;
1693;SDS011;844;47.058;15.472;2023-05-07T01:03:10;10.43;;;9.70;;
1693;SDS011;844;47.058;15.472;2023-05-07T01:05:41;8.53;;;7.73;;
1693;SDS011;844;47.058;15.472;2023-05-07T01:08:14;9.40;;;8.70;;
1693;SDS011;844;47.058;15.472;2023-05-07T01:10:46;8.80;;;8.10;;
1693;SDS011;844;47.058;15.472;2023-05-07T01:13:17;10.10;;;9.30;;
1693;SDS011;844;47.058;15.472;2023-05-07T01:15:48;7.97;;;7.37;;
1693;SDS011;844;47.058;15.472;2023-05-07T01:18:19;8.30;;;7.70;;
1693;SDS011;844;47.058;15.472;2023-05-07T01:20:50;7.83;;;7.23;;
1693;SDS011;844;47.058;15.472;2023-05-07T01:23:22;8.63;;;7.97;;
1693;SDS011;844;47.058;15.472;2023-05-07T01:25:53;8.07;;;7.37;;
1693;SDS011;844;47.058;15.472;2023-05-07T01:28:24;9.60;;;8.90;;
1693;SDS011;844;47.058;15.472;2023-05-07T01:30:57;8.50;;;7.60;;
1693;SDS011;844;47.058;15.472;2023-05-07T01:33:32;6.80;;;6.30;;
1693;SDS011;844;47.058;15.472;2023-05-07T01:36:04;5.73;;;5.33;;
1693;SDS011;844;47.058;15.472;2023-05-07T01:38:37;6.27;;;5.83;;
1693;SDS011;844;47.058;15.472;2023-05-07T01:41:08;5.90;;;5.33;;
1693;SDS011;844;47.058;15.472;2023-05-07T01:43:40;6.37;;;5.73;;
1693;SDS011;844;47.058;15.472;2023-05-07T01:46:11;6.07;;;5.67;;
1693;SDS011;844;47.058;15.472;2023-05-07T01:48:43;5.50;;;5.10;;
1693;SDS011;844;47.058;15.472;2023-05-07T01:51:15;5.23;;;4.93;;
1693;SDS011;844;47.058;15.472;2023-05-07T01:53:48;6.20;;;5.67;;
1693;SDS011;844;47.058;15.472;2023-05-07T01:56:19;7.43;;;6.83;;
1693;SDS011;844;47.058;15.472;2023-05-07T01:58:50;7.10;;;6.60;;
1693;SDS011;844;47.058;15.472;2023-05-07T02:01:21;5.20;;;4.80;;
1693;SDS011;844;47.058;15.472;2023-05-07T02:03:52;7.03;;;6.30;;
1693;SDS011;844;47.058;15.472;2023-05-07T02:06:23;5.53;;;5.03;;
1693;SDS011;844;47.058;15.472;2023-05-07T02:08:55;6.20;;;5.60;;
1693;SDS011;844;47.058;15.472;2023-05-07T02:11:26;6.00;;;5.50;;
1693;SDS011;844;47.058;15.472;2023-05-07T02:13:56;4.90;;;4.60;;
1693;SDS011;844;47.058;15.472;2023-05-07T02:16:27;6.50;;;5.90;;
1693;SDS011;844;47.058;15.472;2023-05-07T02:18:58;5.77;;;5.27;;
1693;SDS011;844;47.058;15.472;2023-05-07T02:21:29;6.40;;;5.90;;
1693;SDS011;844;47.058;15.472;2023-05-07T02:24:01;6.60;;;6.10;;
1693;SDS011;844;47.058;15.472;2023-05-07T02:26:32;5.17;;;4.77;;
1693;SDS011;844;47.058;15.472;2023-05-07T02:29:03;4.90;;;4.60;;
1693;SDS011;844;47.058;15.472;2023-05-07T02:31:33;5.00;;;4.60;;
1693;SDS011;844;47.058;15.472;2023-05-07T02:34:05;6.10;;;5.60;;
1693;SDS011;844;47.058;15.472;2023-05-07T02:36:36;5.60;;;5.10;;
1693;SDS011;844;47.058;15.472;2023-05-07T02:39:08;7.13;;;6.53;;
1693;SDS011;844;47.058;15.472;2023-05-07T02:41:38;6.20;;;5.60;;
1693;SDS011;844;47.058;15.472;2023-05-07T02:44:08;6.20;;;5.70;;
1693;SDS011;844;47.058;15.472;2023-05-07T02:46:39;6.17;;;5.67;;
1693;SDS011;844;47.058;15.472;2023-05-07T02:49:10;6.67;;;6.07;;
1693;SDS011;844;47.058;15.472;2023-05-07T02:51:40;7.90;;;7.10;;
1693;SDS011;844;47.058;15.472;2023-05-07T02:54:16;5.47;;;5.07;;
1693;SDS011;844;47.058;15.472;2023-05-07T02:56:46;5.27;;;4.87;;
1693;SDS011;844;47.058;15.472;2023-05-07T02:59:17;5.80;;;5.30;;
1693;SDS011;844;47.058;15.472;2023-05-07T03:01:48;5.30;;;4.90;;
1693;SDS011;844;47.058;15.472;2023-05-07T03:04:18;6.37;;;5.77;;
1693;SDS011;844;47.058;15.472;2023-05-07T03:06:49;5.80;;;5.30;;
1693;SDS011;844;47.058;15.472;2023-05-07T03:09:21;6.00;;;5.50;;
1693;SDS011;844;47.058;15.472;2023-05-07T03:11:51;5.80;;;5.40;;
1693;SDS011;844;47.058;15.472;2023-05-07T03:14:21;7.27;;;5.40;;
1693;SDS011;844;47.058;15.472;2023-05-07T03:16:51;6.30;;;5.90;;
1693;SDS011;844;47.058;15.472;2023-05-07T03:19:21;6.53;;;4.60;;
1693;SDS011;844;47.058;15.472;2023-05-07T03:21:51;6.10;;;5.60;;
1693;SDS011;844;47.058;15.472;2023-05-07T03:24:23;5.93;;;5.47;;
1693;SDS011;844;47.058;15.472;2023-05-07T03:26:55;5.83;;;5.23;;
1693;SDS011;844;47.058;15.472;2023-05-07T03:29:25;5.57;;;5.17;;
1693;SDS011;844;47.058;15.472;2023-05-07T03:31:56;6.70;;;6.00;;
1693;SDS011;844;47.058;15.472;2023-05-07T03:34:26;5.50;;;5.10;;
1693;SDS011;844;47.058;15.472;2023-05-07T03:36:56;4.90;;;4.50;;
1693;SDS011;844;47.058;15.472;2023-05-07T03:39:28;6.00;;;5.50;;
1693;SDS011;844;47.058;15.472;2023-05-07T03:41:59;7.63;;;5.00;;
1693;SDS011;844;47.058;15.472;2023-05-07T03:44:30;5.67;;;5.17;;
1693;SDS011;844;47.058;15.472;2023-05-07T03:47:00;7.23;;;6.70;;
1693;SDS011;844;47.058;15.472;2023-05-07T03:49:31;5.47;;;4.97;;
1693;SDS011;844;47.058;15.472;2023-05-07T03:52:01;5.70;;;5.30;;
1693;SDS011;844;47.058;15.472;2023-05-07T03:54:33;5.70;;;5.10;;
1693;SDS011;844;47.058;15.472;2023-05-07T03:57:03;5.27;;;4.87;;
1693;SDS011;844;47.058;15.472;2023-05-07T03:59:33;5.37;;;4.87;;
1693;SDS011;844;47.058;15.472;2023-05-07T04:02:04;5.63;;;5.03;;
1693;SDS011;844;47.058;15.472;2023-05-07T04:04:35;6.40;;;5.77;;
1693;SDS011;844;47.058;15.472;2023-05-07T04:07:05;5.63;;;5.10;;
1693;SDS011;844;47.058;15.472;2023-05-07T04:09:37;5.70;;;5.20;;
1693;SDS011;844;47.058;15.472;2023-05-07T04:12:08;4.97;;;4.60;;
1693;SDS011;844;47.058;15.472;2023-05-07T04:14:38;5.20;;;4.80;;
1693;SDS011;844;47.058;15.472;2023-05-07T04:17:08;5.77;;;5.37;;
1693;SDS011;844;47.058;15.472;2023-05-07T04:19:38;5.97;;;5.40;;
1693;SDS011;844;47.058;15.472;2023-05-07T04:22:13;5.37;;;4.97;;
1693;SDS011;844;47.058;15.472;2023-05-07T04:24:45;5.90;;;5.43;;
1693;SDS011;844;47.058;15.472;2023-05-07T04:27:15;5.90;;;5.40;;
1693;SDS011;844;47.058;15.472;2023-05-07T04:29:45;6.27;;;5.67;;
1693;SDS011;844;47.058;15.472;2023-05-07T04:32:15;6.30;;;5.80;;
1693;SDS011;844;47.058;15.472;2023-05-07T04:34:46;5.63;;;5.20;;
1693;SDS011;844;47.058;15.472;2023-05-07T04:37:16;5.40;;;4.90;;
1693;SDS011;844;47.058;15.472;2023-05-07T04:39:48;6.93;;;6.37;;
1693;SDS011;844;47.058;15.472;2023-05-07T04:42:19;6.30;;;5.70;;
1693;SDS011;844;47.058;15.472;2023-05-07T04:44:52;6.27;;;5.70;;
1693;SDS011;844;47.058;15.472;2023-05-07T04:47:22;4.73;;;4.43;;
1693;SDS011;844;47.058;15.472;2023-05-07T04:49:53;5.17;;;4.80;;
1693;SDS011;844;47.058;15.472;2023-05-07T04:52:23;4.80;;;4.40;;
1693;SDS011;844;47.058;15.472;2023-05-07T04:54:55;5.87;;;5.37;;
1693;SDS011;844;47.058;15.472;2023-05-07T04:57:28;5.67;;;5.27;;
1693;SDS011;844;47.058;15.472;2023-05-07T04:59:58;5.00;;;4.60;;
1693;SDS011;844;47.058;15.472;2023-05-07T05:02:28;4.97;;;4.67;;
1693;SDS011;844;47.058;15.472;2023-05-07T05:04:59;4.87;;;4.40;;
1693;SDS011;844;47.058;15.472;2023-05-07T05:07:29;5.20;;;4.73;;
1693;SDS011;844;47.058;15.472;2023-05-07T05:10:01;4.93;;;4.53;;
1693;SDS011;844;47.058;15.472;2023-05-07T05:12:34;4.97;;;4.57;;
1693;SDS011;844;47.058;15.472;2023-05-07T05:15:04;4.70;;;4.30;;
1693;SDS011;844;47.058;15.472;2023-05-07T05:17:37;4.83;;;4.43;;
1693;SDS011;844;47.058;15.472;2023-05-07T05:20:08;5.40;;;5.00;;
1693;SDS011;844;47.058;15.472;2023-05-07T05:22:40;4.00;;;3.70;;
1693;SDS011;844;47.058;15.472;2023-05-07T05:25:12;4.93;;;4.37;;
1693;SDS011;844;47.058;15.472;2023-05-07T05:27:42;4.07;;;3.73;;
1693;SDS011;844;47.058;15.472;2023-05-07T05:30:13;6.07;;;5.67;;
1693;SDS011;844;47.058;15.472;2023-05-07T05:32:43;5.13;;;4.73;;
1693;SDS011;844;47.058;15.472;2023-05-07T05:35:13;4.90;;;4.40;;
1693;SDS011;844;47.058;15.472;2023-05-07T05:37:44;4.40;;;3.93;;
1693;SDS011;844;47.058;15.472;2023-05-07T05:40:16;4.13;;;3.73;;
1693;SDS011;844;47.058;15.472;2023-05-07T05:42:46;4.80;;;4.40;;
1693;SDS011;844;47.058;15.472;2023-05-07T05:45:16;4.30;;;4.00;;
1693;SDS011;844;47.058;15.472;2023-05-07T05:47:45;4.30;;;4.00;;
1693;SDS011;844;47.058;15.472;2023-05-07T05:50:17;4.30;;;4.00;;
1693;SDS011;844;47.058;15.472;2023-05-07T05:52:48;4.83;;;4.53;;
1693;SDS011;844;47.058;15.472;2023-05-07T05:55:20;4.40;;;4.00;;
1693;SDS011;844;47.058;15.472;2023-05-07T05:57:50;4.30;;;4.00;;
1693;SDS011;844;47.058;15.472;2023-05-07T06:00:20;4.70;;;4.23;;
1693;SDS011;844;47.058;15.472;2023-05-07T06:02:51;4.30;;;4.00;;
1693;SDS011;844;47.058;15.472;2023-05-07T06:05:21;4.60;;;4.30;;
1693;SDS011;844;47.058;15.472;2023-05-07T06:07:52;3.90;;;3.60;;
1693;SDS011;844;47.058;15.472;2023-05-07T06:10:24;4.60;;;4.20;;
1693;SDS011;844;47.058;15.472;2023-05-07T06:12:54;4.20;;;3.80;;
1693;SDS011;844;47.058;15.472;2023-05-07T06:15:24;6.33;;;4.33;;
1693;SDS011;844;47.058;15.472;2023-05-07T06:17:54;4.20;;;3.90;;
1693;SDS011;844;47.058;15.472;2023-05-07T06:20:25;3.73;;;3.43;;
1693;SDS011;844;47.058;15.472;2023-05-07T06:22:55;3.90;;;3.60;;
1693;SDS011;844;47.058;15.472;2023-05-07T06:25:27;4.20;;;3.90;;
1693;SDS011;844;47.058;15.472;2023-05-07T06:27:57;5.13;;;4.73;;
1693;SDS011;844;47.058;15.472;2023-05-07T06:30:27;4.00;;;3.63;;
1693;SDS011;844;47.058;15.472;2023-05-07T06:32:57;4.90;;;3.63;;
1693;SDS011;844;47.058;15.472;2023-05-07T06:35:28;3.73;;;3.40;;
1693;SDS011;844;47.058;15.472;2023-05-07T06:37:59;4.03;;;3.73;;
1693;SDS011;844;47.058;15.472;2023-05-07T06:40:31;3.97;;;3.57;;
1693;SDS011;844;47.058;15.472;2023-05-07T06:43:01;4.13;;;3.80;;
1693;SDS011;844;47.058;15.472;2023-05-07T06:45:32;3.97;;;3.67;;
1693;SDS011;844;47.058;15.472;2023-05-07T06:48:02;3.57;;;3.30;;
1693;SDS011;844;47.058;15.472;2023-05-07T06:50:33;4.40;;;4.10;;
1693;SDS011;844;47.058;15.472;2023-05-07T06:53:03;4.90;;;4.60;;
1693;SDS011;844;47.058;15.472;2023-05-07T06:55:35;5.40;;;4.17;;
1693;SDS011;844;47.058;15.472;2023-05-07T06:58:06;5.03;;;3.77;;
1693;SDS011;844;47.058;15.472;2023-05-07T07:00:36;5.17;;;4.77;;
1693;SDS011;844;47.058;15.472;2023-05-07T07:03:08;4.53;;;4.23;;
1693;SDS011;844;47.058;15.472;2023-05-07T07:05:40;4.70;;;4.33;;
1693;SDS011;844;47.058;15.472;2023-05-07T07:08:11;5.37;;;4.87;;
1693;SDS011;844;47.058;15.472;2023-05-07T07:10:45;4.60;;;4.30;;
1693;SDS011;844;47.058;15.472;2023-05-07T07:13:16;4.80;;;4.37;;
1693;SDS011;844;47.058;15.472;2023-05-07T07:15:47;4.43;;;4.13;;
1693;SDS011;844;47.058;15.472;2023-05-07T07:18:18;5.40;;;5.00;;
1693;SDS011;844;47.058;15.472;2023-05-07T07:20:48;5.80;;;5.30;;
1693;SDS011;844;47.058;15.472;2023-05-07T07:23:19;6.13;;;5.50;;
1693;SDS011;844;47.058;15.472;2023-05-07T07:25:50;5.33;;;4.90;;
1693;SDS011;844;47.058;15.472;2023-05-07T07:28:20;5.80;;;5.30;;
1693;SDS011;844;47.058;15.472;2023-05-07T07:30:51;5.63;;;5.23;;
1693;SDS011;844;47.058;15.472;2023-05-07T07:33:21;6.17;;;5.57;;
1693;SDS011;844;47.058;15.472;2023-05-07T07:35:51;5.33;;;4.93;;
1693;SDS011;844;47.058;15.472;2023-05-07T07:38:21;5.17;;;4.77;;
1693;SDS011;844;47.058;15.472;2023-05-07T07:40:52;5.87;;;5.37;;
1693;SDS011;844;47.058;15.472;2023-05-07T07:43:22;6.37;;;5.83;;
1693;SDS011;844;47.058;15.472;2023-05-07T07:45:53;6.30;;;5.70;;
1693;SDS011;844;47.058;15.472;2023-05-07T07:48:23;6.20;;;5.70;;
1693;SDS011;844;47.058;15.472;2023-05-07T07:50:54;5.40;;;5.00;;
1693;SDS011;844;47.058;15.472;2023-05-07T07:53:25;6.83;;;5.97;;
1693;SDS011;844;47.058;15.472;2023-05-07T07:55:57;6.80;;;6.20;;
1693;SDS011;844;47.058;15.472;2023-05-07T07:58:31;6.37;;;5.87;;
1693;SDS011;844;47.058;15.472;2023-05-07T08:01:03;6.27;;;5.87;;
1693;SDS011;844;47.058;15.472;2023-05-07T08:03:34;5.87;;;5.43;;
1693;SDS011;844;47.058;15.472;2023-05-07T08:06:05;5.57;;;5.17;;
1693;SDS011;844;47.058;15.472;2023-05-07T08:08:35;6.00;;;5.50;;
1693;SDS011;844;47.058;15.472;2023-05-07T08:11:08;6.10;;;5.43;;
1693;SDS011;844;47.058;15.472;2023-05-07T08:13:38;6.00;;;5.50;;
1693;SDS011;844;47.058;15.472;2023-05-07T08:16:08;6.30;;;5.80;;
1693;SDS011;844;47.058;15.472;2023-05-07T08:18:39;6.03;;;5.53;;
1693;SDS011;844;47.058;15.472;2023-05-07T08:21:10;5.90;;;5.40;;
1693;SDS011;844;47.058;15.472;2023-05-07T08:23:41;5.83;;;5.43;;
1693;SDS011;844;47.058;15.472;2023-05-07T08:26:13;6.40;;;5.90;;
1693;SDS011;844;47.058;15.472;2023-05-07T08:28:44;5.87;;;5.37;;
1693;SDS011;844;47.058;15.472;2023-05-07T08:31:14;6.10;;;5.60;;
1693;SDS011;844;47.058;15.472;2023-05-07T08:33:45;5.80;;;5.40;;
1693;SDS011;844;47.058;15.472;2023-05-07T08:36:15;6.43;;;5.80;;
1693;SDS011;844;47.058;15.472;2023-05-07T08:38:46;6.80;;;6.10;;
1693;SDS011;844;47.058;15.472;2023-05-07T08:41:20;6.20;;;5.70;;
1693;SDS011;844;47.058;15.472;2023-05-07T08:43:50;5.37;;;4.97;;
1693;SDS011;844;47.058;15.472;2023-05-07T08:46:21;7.13;;;6.43;;
1693;SDS011;844;47.058;15.472;2023-05-07T08:48:52;6.27;;;5.70;;
1693;SDS011;844;47.058;15.472;2023-05-07T08:51:22;6.33;;;5.73;;
1693;SDS011;844;47.058;15.472;2023-05-07T08:53:53;5.80;;;5.40;;
1693;SDS011;844;47.058;15.472;2023-05-07T08:56:24;5.90;;;5.40;;
1693;SDS011;844;47.058;15.472;2023-05-07T08:58:54;6.17;;;5.73;;
1693;SDS011;844;47.058;15.472;2023-05-07T09:01:26;5.90;;;5.40;;
1693;SDS011;844;47.058;15.472;2023-05-07T09:03:58;6.10;;;5.50;;
1693;SDS011;844;47.058;15.472;2023-05-07T09:06:28;5.60;;;5.10;;
1693;SDS011;844;47.058;15.472;2023-05-07T09:08:58;6.50;;;6.00;;
1693;SDS011;844;47.058;15.472;2023-05-07T09:11:30;5.77;;;5.13;;
1693;SDS011;844;47.058;15.472;2023-05-07T09:14:00;5.30;;;4.90;;
1693;SDS011;844;47.058;15.472;2023-05-07T09:16:32;5.60;;;4.70;;
1693;SDS011;844;47.058;15.472;2023-05-07T09:19:03;5.73;;;5.33;;
1693;SDS011;844;47.058;15.472;2023-05-07T09:21:33;5.77;;;5.30;;
1693;SDS011;844;47.058;15.472;2023-05-07T09:24:04;5.77;;;5.37;;
1693;SDS011;844;47.058;15.472;2023-05-07T09:26:36;5.70;;;5.30;;
1693;SDS011;844;47.058;15.472;2023-05-07T09:29:06;7.13;;;4.80;;
1693;SDS011;844;47.058;15.472;2023-05-07T09:31:36;5.73;;;5.33;;
1693;SDS011;844;47.058;15.472;2023-05-07T09:34:09;5.60;;;5.20;;
1693;SDS011;844;47.058;15.472;2023-05-07T09:36:39;5.70;;;5.30;;
1693;SDS011;844;47.058;15.472;2023-05-07T09:39:09;5.53;;;5.03;;
1693;SDS011;844;47.058;15.472;2023-05-07T09:41:46;5.43;;;5.00;;
1693;SDS011;844;47.058;15.472;2023-05-07T09:44:18;5.83;;;5.43;;
1693;SDS011;844;47.058;15.472;2023-05-07T09:46:53;5.40;;;5.00;;
1693;SDS011;844;47.058;15.472;2023-05-07T09:49:24;6.63;;;6.13;;
1693;SDS011;844;47.058;15.472;2023-05-07T09:51:57;6.20;;;5.70;;
1693;SDS011;844;47.058;15.472;2023-05-07T09:54:29;6.43;;;4.83;;
1693;SDS011;844;47.058;15.472;2023-05-07T09:57:04;5.53;;;5.13;;
1693;SDS011;844;47.058;15.472;2023-05-07T09:59:35;6.50;;;5.10;;
1693;SDS011;844;47.058;15.472;2023-05-07T10:02:08;5.40;;;4.97;;
1693;SDS011;844;47.058;15.472;2023-05-07T10:04:39;7.17;;;6.47;;
1693;SDS011;844;47.058;15.472;2023-05-07T10:07:09;6.30;;;5.80;;
1693;SDS011;844;47.058;15.472;2023-05-07T10:09:40;4.70;;;4.40;;
1693;SDS011;844;47.058;15.472;2023-05-07T10:12:17;4.77;;;4.37;;
1693;SDS011;844;47.058;15.472;2023-05-07T10:14:46;5.67;;;5.27;;
1693;SDS011;844;47.058;15.472;2023-05-07T10:17:17;4.70;;;4.20;;
1693;SDS011;844;47.058;15.472;2023-05-07T10:19:49;4.57;;;4.17;;
1693;SDS011;844;47.058;15.472;2023-05-07T10:22:21;4.93;;;4.53;;
1693;SDS011;844;47.058;15.472;2023-05-07T10:24:51;5.53;;;5.03;;
1693;SDS011;844;47.058;15.472;2023-05-07T10:27:25;4.50;;;4.10;;
1693;SDS011;844;47.058;15.472;2023-05-07T10:29:58;5.20;;;4.70;;
1693;SDS011;844;47.058;15.472;2023-05-07T10:32:37;4.20;;;3.90;;
1693;SDS011;844;47.058;15.472;2023-05-07T10:35:10;4.23;;;3.93;;
1693;SDS011;844;47.058;15.472;2023-05-07T10:37:43;3.97;;;3.67;;
1693;SDS011;844;47.058;15.472;2023-05-07T10:40:13;4.43;;;4.03;;
1693;SDS011;844;47.058;15.472;2023-05-07T10:42:56;5.40;;;4.47;;
1693;SDS011;844;47.058;15.472;2023-05-07T10:45:26;4.30;;;4.00;;
1693;SDS011;844;47.058;15.472;2023-05-07T10:48:10;3.50;;;3.20;;
1693;SDS011;844;47.058;15.472;2023-05-07T10:50:45;4.33;;;3.93;;
1693;SDS011;844;47.058;15.472;2023-05-07T10:53:22;4.10;;;3.80;;
1693;SDS011;844;47.058;15.472;2023-05-07T10:59:01;4.60;;;4.20;;
1693;SDS011;844;47.058;15.472;2023-05-07T11:02:09;4.40;;;3.90;;
1693;SDS011;844;47.058;15.472;2023-05-07T11:04:41;4.30;;;4.00;;
1693;SDS011;844;47.058;15.472;2023-05-07T11:10:05;4.00;;;3.70;;
1693;SDS011;844;47.058;15.472;2023-05-07T11:12:52;5.43;;;5.03;;
1693;SDS011;844;47.058;15.472;2023-05-07T11:15:44;4.07;;;3.77;;
1693;SDS011;844;47.058;15.472;2023-05-07T11:18:15;4.03;;;3.73;;
1693;SDS011;844;47.058;15.472;2023-05-07T11:20:46;3.60;;;3.30;;
1693;SDS011;844;47.058;15.472;2023-05-07T11:26:29;4.03;;;3.70;;
1693;SDS011;844;47.058;15.472;2023-05-07T11:29:01;9.17;;;4.20;;
1693;SDS011;844;47.058;15.472;2023-05-07T11:31:33;4.50;;;4.00;;
1693;SDS011;844;47.058;15.472;2023-05-07T11:34:04;3.90;;;3.50;;
1693;SDS011;844;47.058;15.472;2023-05-07T11:36:34;3.67;;;3.37;;
1693;SDS011;844;47.058;15.472;2023-05-07T11:39:27;3.73;;;3.53;;
1693;SDS011;844;47.058;15.472;2023-05-07T11:42:00;4.17;;;3.87;;
1693;SDS011;844;47.058;15.472;2023-05-07T11:44:41;5.00;;;3.87;;
1693;SDS011;844;47.058;15.472;2023-05-07T11:47:19;3.90;;;3.60;;
1693;SDS011;844;47.058;15.472;2023-05-07T11:49:50;3.80;;;3.60;;
1693;SDS011;844;47.058;15.472;2023-05-07T11:52:22;3.40;;;3.17;;
1693;SDS011;844;47.058;15.472;2023-05-07T11:54:56;4.07;;;3.67;;
1693;SDS011;844;47.058;15.472;2023-05-07T11:57:28;3.53;;;3.33;;
1693;SDS011;844;47.058;15.472;2023-05-07T11:59:59;4.00;;;3.70;;
1693;SDS011;844;47.058;15.472;2023-05-07T12:02:32;3.50;;;3.30;;
1693;SDS011;844;47.058;15.472;2023-05-07T12:05:02;4.30;;;4.00;;
1693;SDS011;844;47.058;15.472;2023-05-07T12:07:34;3.40;;;3.10;;
1693;SDS011;844;47.058;15.472;2023-05-07T12:10:05;3.27;;;3.07;;
1693;SDS011;844;47.058;15.472;2023-05-07T12:12:40;3.33;;;3.13;;
1693;SDS011;844;47.058;15.472;2023-05-07T12:15:13;3.47;;;3.17;;
1693;SDS011;844;47.058;15.472;2023-05-07T12:17:47;3.57;;;3.37;;
1693;SDS011;844;47.058;15.472;2023-05-07T12:20:18;3.70;;;3.50;;
1693;SDS011;844;47.058;15.472;2023-05-07T12:22:48;3.70;;;3.40;;
1693;SDS011;844;47.058;15.472;2023-05-07T12:25:21;4.10;;;3.80;;
1693;SDS011;844;47.058;15.472;2023-05-07T12:27:52;3.73;;;3.53;;
1693;SDS011;844;47.058;15.472;2023-05-07T12:30:25;3.83;;;3.53;;
1693;SDS011;844;47.058;15.472;2023-05-07T12:32:58;3.57;;;3.27;;
1693;SDS011;844;47.058;15.472;2023-05-07T12:35:28;4.40;;;4.00;;
1693;SDS011;844;47.058;15.472;2023-05-07T12:37:59;3.37;;;3.07;;
1693;SDS011;844;47.058;15.472;2023-05-07T12:40:35;3.67;;;3.47;;
1693;SDS011;844;47.058;15.472;2023-05-07T12:43:06;3.67;;;3.37;;
1693;SDS011;844;47.058;15.472;2023-05-07T12:45:37;4.53;;;4.13;;
1693;SDS011;844;47.058;15.472;2023-05-07T12:48:10;3.50;;;3.30;;
1693;SDS011;844;47.058;15.472;2023-05-07T12:50:42;4.17;;;3.87;;
1693;SDS011;844;47.058;15.472;2023-05-07T12:53:14;3.63;;;3.33;;
1693;SDS011;844;47.058;15.472;2023-05-07T12:55:44;3.23;;;3.03;;
1693;SDS011;844;47.058;15.472;2023-05-07T12:58:17;3.83;;;3.43;;
1693;SDS011;844;47.058;15.472;2023-05-07T13:00:49;4.30;;;3.30;;
1693;SDS011;844;47.058;15.472;2023-05-07T13:03:23;3.60;;;3.30;;
1693;SDS011;844;47.058;15.472;2023-05-07T13:05:55;4.30;;;4.00;;
1693;SDS011;844;47.058;15.472;2023-05-07T13:08:28;3.70;;;3.50;;
1693;SDS011;844;47.058;15.472;2023-05-07T13:10:59;4.00;;;3.70;;
1693;SDS011;844;47.058;15.472;2023-05-07T13:13:31;3.80;;;3.60;;
1693;SDS011;844;47.058;15.472;2023-05-07T13:16:02;8.07;;;5.60;;
1693;SDS011;844;47.058;15.472;2023-05-07T13:18:37;7.40;;;4.90;;
1693;SDS011;844;47.058;15.472;2023-05-07T13:21:11;8.00;;;4.60;;
1693;SDS011;844;47.058;15.472;2023-05-07T13:23:42;5.37;;;4.80;;
1693;SDS011;844;47.058;15.472;2023-05-07T13:26:13;5.53;;;5.00;;
1693;SDS011;844;47.058;15.472;2023-05-07T13:28:50;6.37;;;5.80;;
1693;SDS011;844;47.058;15.472;2023-05-07T13:31:22;5.63;;;5.17;;
1693;SDS011;844;47.058;15.472;2023-05-07T13:33:55;6.53;;;5.73;;
1693;SDS011;844;47.058;15.472;2023-05-07T13:36:25;9.00;;;7.73;;
1693;SDS011;844;47.058;15.472;2023-05-07T13:38:56;7.20;;;5.27;;
1693;SDS011;844;47.058;15.472;2023-05-07T13:41:28;7.60;;;6.40;;
1693;SDS011;844;47.058;15.472;2023-05-07T13:43:58;6.20;;;5.80;;
1693;SDS011;844;47.058;15.472;2023-05-07T13:46:29;7.80;;;7.10;;
1693;SDS011;844;47.058;15.472;2023-05-07T13:49:01;8.37;;;7.63;;
1693;SDS011;844;47.058;15.472;2023-05-07T13:51:32;9.53;;;8.63;;
1693;SDS011;844;47.058;15.472;2023-05-07T13:54:02;8.50;;;7.70;;
1693;SDS011;844;47.058;15.472;2023-05-07T13:56:33;10.30;;;9.60;;
1693;SDS011;844;47.058;15.472;2023-05-07T13:59:04;10.90;;;10.00;;
1693;SDS011;844;47.058;15.472;2023-05-07T14:01:34;11.63;;;10.63;;
1693;SDS011;844;47.058;15.472;2023-05-07T14:04:06;10.47;;;9.67;;
1693;SDS011;844;47.058;15.472;2023-05-07T14:06:36;12.17;;;11.07;;
1693;SDS011;844;47.058;15.472;2023-05-07T14:09:08;13.30;;;12.10;;
1693;SDS011;844;47.058;15.472;2023-05-07T14:11:41;13.93;;;12.70;;
1693;SDS011;844;47.058;15.472;2023-05-07T14:14:15;11.80;;;10.90;;
1693;SDS011;844;47.058;15.472;2023-05-07T14:16:46;13.43;;;12.30;;
1693;SDS011;844;47.058;15.472;2023-05-07T14:19:19;14.07;;;12.87;;
1693;SDS011;844;47.058;15.472;2023-05-07T14:21:51;14.37;;;13.20;;
1693;SDS011;844;47.058;15.472;2023-05-07T14:24:23;11.97;;;10.77;;
1693;SDS011;844;47.058;15.472;2023-05-07T14:27:05;14.00;;;12.80;;
1693;SDS011;844;47.058;15.472;2023-05-07T14:29:36;13.87;;;12.77;;
1693;SDS011;844;47.058;15.472;2023-05-07T14:32:05;12.27;;;11.37;;
1693;SDS011;844;47.058;15.472;2023-05-07T14:34:38;12.13;;;11.10;;
1693;SDS011;844;47.058;15.472;2023-05-07T14:37:08;13.07;;;11.30;;
1693;SDS011;844;47.058;15.472;2023-05-07T14:39:39;11.67;;;10.77;;
1693;SDS011;844;47.058;15.472;2023-05-07T14:42:09;11.83;;;11.00;;
1693;SDS011;844;47.058;15.472;2023-05-07T14:44:40;12.07;;;10.80;;
1693;SDS011;844;47.058;15.472;2023-05-07T14:47:12;10.13;;;9.47;;
1693;SDS011;844;47.058;15.472;2023-05-07T14:49:48;12.13;;;11.23;;
1693;SDS011;844;47.058;15.472;2023-05-07T14:52:23;11.20;;;10.37;;
1693;SDS011;844;47.058;15.472;2023-05-07T14:54:54;9.70;;;9.00;;
1693;SDS011;844;47.058;15.472;2023-05-07T14:57:25;11.30;;;10.40;;
1693;SDS011;844;47.058;15.472;2023-05-07T14:59:59;9.67;;;8.97;;
1693;SDS011;844;47.058;15.472;2023-05-07T15:02:32;11.33;;;10.53;;
1693;SDS011;844;47.058;15.472;2023-05-07T15:05:08;12.80;;;11.67;;
1693;SDS011;844;47.058;15.472;2023-05-07T15:07:39;12.83;;;11.50;;
1693;SDS011;844;47.058;15.472;2023-05-07T15:10:11;13.33;;;12.20;;
1693;SDS011;844;47.058;15.472;2023-05-07T15:12:42;13.90;;;12.80;;
1693;SDS011;844;47.058;15.472;2023-05-07T15:15:15;13.03;;;11.93;;
1693;SDS011;844;47.058;15.472;2023-05-07T15:17:45;15.53;;;14.33;;
1693;SDS011;844;47.058;15.472;2023-05-07T15:20:17;12.27;;;11.23;;
1693;SDS011;844;47.058;15.472;2023-05-07T15:22:47;15.80;;;14.60;;
1693;SDS011;844;47.058;15.472;2023-05-07T15:25:18;14.60;;;13.47;;
1693;SDS011;844;47.058;15.472;2023-05-07T15:27:48;15.20;;;13.90;;
1693;SDS011;844;47.058;15.472;2023-05-07T15:30:18;15.20;;;13.90;;
1693;SDS011;844;47.058;15.472;2023-05-07T15:32:48;13.50;;;12.33;;
1693;SDS011;844;47.058;15.472;2023-05-07T15:35:20;15.40;;;14.20;;
1693;SDS011;844;47.058;15.472;2023-05-07T15:37:51;14.27;;;13.20;;
1693;SDS011;844;47.058;15.472;2023-05-07T15:40:21;12.27;;;11.27;;
1693;SDS011;844;47.058;15.472;2023-05-07T15:42:52;14.23;;;12.97;;
1693;SDS011;844;47.058;15.472;2023-05-07T15:45:25;13.60;;;12.33;;
1693;SDS011;844;47.058;15.472;2023-05-07T15:47:57;14.70;;;13.70;;